Flight Track Log - Related Links

Times and Time Zones

All times are in EST time to prevent confusion due to time zone crossing. See the N1250V flight status page for this flight to view local times or setup timezone preferences in your user account.

Time Position Orientation Groundspeed Altitude Reporting Facility
EST Latitude Longitude Course Direction KTS MPH feet Rate Location/Type
Thu 01:14:59 PM 39.1000 -84.4333 180° South 133 153 1,100  Level Cincinnati TRACON
Thu 01:15:29 PM 39.0833 -84.4333 180° South 169 194 1,900 1,000 Climbing Cincinnati TRACON
Thu 01:16:23 PM 39.0333 -84.4333 180° South 211 243 2,500 947 Climbing Cincinnati TRACON
Thu 01:17:23 PM 38.9667 -84.4500 191° South 226 260 3,700 1,600 Climbing Cincinnati TRACON
Thu 01:18:23 PM 38.9000 -84.4500 180° South 259 298 5,700 1,606 Climbing Cincinnati TRACON
Thu 01:19:30 PM 38.8297 -84.4658 190° South 274 315 7,100 1,628 Climbing Indianapolis Center
Thu 01:20:32 PM 38.7478 -84.4642 179° South 293 337 9,200 2,516 Climbing Indianapolis Center
Thu 01:21:34 PM 38.6536 -84.4656 181° South 280 322 12,300 2,323 Climbing Indianapolis Center
Thu 01:22:36 PM 38.5786 -84.4661 180° South 279 321 14,000 1,645 Climbing Indianapolis Center
Thu 01:23:38 PM 38.5003 -84.4667 180° South 280 322 15,700 1,548 Climbing Indianapolis Center
Thu 01:24:40 PM 38.4214 -84.4686 181° South 281 323 17,200 1,296 Climbing Indianapolis Center
Thu 01:25:43 PM 38.3300 -84.4692 180° South 281 323 18,400 1,258 Climbing Indianapolis Center
Thu 01:26:44 PM 38.2511 -84.4697 180° South 283 326 19,800 1,366 Climbing Indianapolis Center
Thu 01:27:46 PM 38.1736 -84.4711 181° South 279 321 21,200 1,258 Climbing Indianapolis Center
Thu 01:28:48 PM 38.0967 -84.4731 181° South 275 316 22,400 1,056 Climbing Indianapolis Center
Thu 01:29:51 PM 38.0183 -84.4733 180° South 279 321 23,400 1,056 Climbing Indianapolis Center
Thu 01:30:53 PM 37.9231 -84.4611 174° South 295 339 24,600 1,161 Climbing Indianapolis Center
Thu 01:31:55 PM 37.8414 -84.4386 168° South 300 345 25,800 1,016 Climbing Indianapolis Center
Thu 01:32:57 PM 37.7592 -84.4156 168° South 299 344 26,700 823 Climbing Indianapolis Center
Thu 01:33:59 PM 37.6781 -84.3911 167° South 299 344 27,500 726 Climbing Indianapolis Center
Thu 01:35:01 PM 37.5944 -84.3669 167° South 305 351 28,200 823 Climbing Indianapolis Center
Thu 01:36:03 PM 37.4981 -84.3389 167° South 304 350 29,200 823 Climbing Indianapolis Center
Thu 01:37:05 PM 37.4142 -84.3153 167° South 308 354 29,900 677 Climbing Indianapolis Center
Thu 01:38:07 PM 37.3319 -84.2914 167° South 304 350 30,600 683 Climbing Indianapolis Center
Thu 01:39:08 PM 37.2506 -84.2694 168° South 301 346 31,300 634 Climbing Indianapolis Center
Thu 01:40:10 PM 37.1681 -84.2458 167° South 301 346 31,900 484 Climbing Indianapolis Center
Thu 01:41:12 PM 37.0878 -84.2228 167° South 298 343 32,300 435 Climbing Indianapolis Center
Thu 01:42:14 PM 36.9892 -84.1956 168° South 307 353 32,800 339 Climbing Indianapolis Center
Thu 01:43:16 PM 36.9061 -84.1728 168° South 307 353 33,000 97 Climbing Indianapolis Center
Thu 01:44:18 PM 36.8194 -84.1475 167° South 315 362 33,000  Level Indianapolis Center
Thu 01:45:20 PM 36.7289 -84.1231 168° South 327 376 33,000  Level Indianapolis Center
Thu 01:46:22 PM 36.6397 -84.0986 168° South 329 379 33,000  Level Indianapolis Center
Thu 01:47:24 PM 36.5333 -84.0686 167° South 334 384 33,000  Level Indianapolis Center
Thu 01:49:28 PM 36.3622 -84.0214 167° South 334 384 33,000  Level Indianapolis Center
Thu 01:50:29 PM 36.2536 -83.9914 167° South 332 382 33,000  Level Indianapolis Center
Thu 01:51:31 PM 36.1619 -83.9658 167° South 334 384 33,000  Level Indianapolis Center
Thu 01:52:34 PM 36.0714 -83.9414 168° South 333 383 33,000  Level Indianapolis Center
Thu 01:53:39 PM 35.9769 -83.9181 169° South 336 387 33,000  Level Atlanta Center
Thu 01:54:39 PM 35.8914 -83.8978 169° South 330 380 33,000  Level Atlanta Center
Thu 01:55:39 PM 35.8122 -83.9183 192° South 305 351 33,000  Level Atlanta Center
Thu 01:56:39 PM 35.7328 -83.9389 192° South 294 338 33,000  Level Atlanta Center
Thu 01:57:39 PM 35.6556 -83.9569 191° South 294 338 33,000  Level Atlanta Center
Thu 01:58:39 PM 35.5806 -83.9750 191° South 294 338 33,000  Level Atlanta Center
Thu 01:59:39 PM 35.5014 -83.9953 192° South 294 338 33,000  Level Atlanta Center
Thu 02:00:39 PM 35.4242 -84.0133 191° South 294 338 33,000  Level Atlanta Center
Thu 02:01:39 PM 35.3469 -84.0311 191° South 294 338 33,000  Level Atlanta Center
Thu 02:02:39 PM 35.2717 -84.0514 192° South 294 338 33,000  Level Atlanta Center
Thu 02:03:39 PM 35.1925 -84.0719 192° South 294 338 33,000  Level Atlanta Center
Thu 02:04:39 PM 35.1153 -84.0894 191° South 294 338 33,000  Level Atlanta Center
Thu 02:05:39 PM 35.0403 -84.1072 191° South 294 338 33,000  Level Atlanta Center
Thu 02:06:39 PM 34.9608 -84.1250 190° South 294 338 33,000  Level Atlanta Center
Thu 02:07:39 PM 34.8836 -84.1450 192° South 294 338 33,000  Level Atlanta Center
Thu 02:08:39 PM 34.8086 -84.1628 191° South 294 338 33,000  Level Atlanta Center
Thu 02:09:39 PM 34.7250 -84.1828 191° South 294 338 33,000  Level Atlanta Center
Thu 02:10:39 PM 34.6583 -84.1953 189° South 283 326 33,000  Level Atlanta Center
Thu 02:11:39 PM 34.5789 -84.2128 190° South 283 326 33,000  Level Atlanta Center
Thu 02:12:39 PM 34.5017 -84.2303 191° South 278 320 33,000  Level Atlanta Center
Thu 02:13:39 PM 34.4244 -84.2503 192° South 278 320 33,000  Level Atlanta Center
Thu 02:14:39 PM 34.3450 -84.2703 192° South 283 326 33,000  Level Atlanta Center
Thu 02:15:39 PM 34.2594 -84.2875 189° South 283 326 33,000  Level Atlanta Center
Thu 02:16:39 PM 34.1822 -84.3075 192° South 283 326 33,000  Level Atlanta Center
Thu 02:17:39 PM 34.1069 -84.3272 192° South 292 336 33,000  Level Atlanta Center
Thu 02:18:39 PM 34.0297 -84.3447 191° South 294 338 33,000  Level Atlanta Center
Thu 02:19:39 PM 33.9544 -84.3619 191° South 294 338 33,000  Level Atlanta Center
Thu 02:20:39 PM 33.8689 -84.3817 191° South 289 333 33,000  Level Atlanta Center
Thu 02:21:39 PM 33.7936 -84.3986 191° South 289 333 33,000  Level Atlanta Center
Thu 02:22:39 PM 33.7122 -84.4158 190° South 289 333 33,000  Level Atlanta Center
Thu 02:23:39 PM 33.6369 -84.4356 192° South 284 327 33,000  Level Atlanta Center
Thu 02:24:39 PM 33.5578 -84.4403 183° South 293 337 33,000  Level Atlanta Center
Thu 02:25:39 PM 33.4742 -84.4372 178° South 293 337 33,000  Level Atlanta Center
Thu 02:26:39 PM 33.3886 -84.4344 178° South 298 343 33,000  Level Atlanta Center
Thu 02:27:39 PM 33.3053 -84.4364 181° South 306 352 33,000  Level Atlanta Center
Thu 02:28:39 PM 33.2217 -84.4311 177° South 306 352 33,000  Level Atlanta Center
Thu 02:29:39 PM 33.1383 -84.4308 180° South 306 352 33,000  Level Atlanta Center
Thu 02:30:39 PM 33.0547 -84.4278 178° South 306 352 33,000  Level Atlanta Center
Thu 02:31:39 PM 32.9692 -84.4300 181° South 306 352 33,000  Level Atlanta Center
Thu 02:32:39 PM 32.8878 -84.4272 178° South 306 352 33,000  Level Atlanta Center
Thu 02:33:39 PM 32.8022 -84.4269 180° South 306 352 33,000  Level Atlanta Center
Thu 02:34:39 PM 32.7292 -84.4217 177° South 306 352 33,000  Level Atlanta Center
Thu 02:35:39 PM 32.6436 -84.4186 178° South 306 352 33,000  Level Atlanta Center
Thu 02:36:39 PM 32.5600 -84.4158 178° South 306 352 33,000  Level Atlanta Center
Thu 02:37:39 PM 32.4744 -84.4181 181° South 306 352 33,000  Level Atlanta Center
Thu 02:38:39 PM 32.3889 -84.4128 177° South 306 352 33,000  Level Atlanta Center
Thu 02:39:39 PM 32.3011 -84.4122 180° South 306 352 33,000  Level Atlanta Center
Thu 02:40:39 PM 32.2156 -84.4119 180° South 306 352 33,000 500 Level Atlanta Center
Thu 02:41:39 PM 32.1300 -84.4092 178° South 306 352 34,000 800 Climbing Atlanta Center
Thu 02:42:39 PM 32.0528 -84.4089 180° South 296 341 34,600 540 Climbing Atlanta Center
Thu 02:43:19 PM 31.9947 -84.4017 174° South 290 334 34,900 240 Climbing Jacksonville Center
Thu 02:44:19 PM 31.9236 -84.4053 182° South 290 334 35,000 50 Climbing Jacksonville Center
Thu 02:45:19 PM 31.8422 -84.3992 176° South 290 334 35,000  Level Jacksonville Center
Thu 02:46:19 PM 31.7589 -84.3978 179° South 290 334 35,000  Level Jacksonville Center
Thu 02:47:19 PM 31.6733 -84.3986 180° South 290 334 35,000  Level Jacksonville Center
Thu 02:48:19 PM 31.5897 -84.3975 179° South 296 341 35,000  Level Jacksonville Center
Thu 02:49:19 PM 31.5042 -84.3936 178° South 302 348 35,000  Level Jacksonville Center
Thu 02:50:19 PM 31.4186 -84.3947 181° South 307 353 35,000  Level Jacksonville Center
Thu 02:51:19 PM 31.3350 -84.3908 178° South 307 353 35,000  Level Jacksonville Center
Thu 02:52:19 PM 31.2472 -84.3919 181° South 307 353 35,000  Level Jacksonville Center
Thu 02:53:19 PM 31.1639 -84.3906 179° South 307 353 35,000  Level Jacksonville Center
Thu 02:54:19 PM 31.0783 -84.3867 178° South 307 353 35,000 -50 Level Jacksonville Center
Thu 02:55:19 PM 30.9928 -84.3853 179° South 307 353 34,900  Descending Jacksonville Center
Thu 02:56:19 PM 30.9072 -84.3842 179° South 307 353 35,000 50 Climbing Jacksonville Center
Thu 02:57:19 PM 30.8194 -84.3828 179° South 312 359 35,000  Level Jacksonville Center
Thu 02:58:19 PM 30.7317 -84.3789 178° South 312 359 35,000  Level Jacksonville Center
Thu 02:59:19 PM 30.6442 -84.3775 179° South 312 359 35,000  Level Jacksonville Center
Thu 03:00:19 PM 30.5544 -84.3736 178° South 312 359 35,000  Level Jacksonville Center
Thu 03:01:19 PM 30.4736 -84.3242 152° Southeast 312 359 35,000  Level Jacksonville Center
Thu 03:02:19 PM 30.3864 -84.2653 150° Southeast 333 383 35,000  Level Jacksonville Center
Thu 03:03:19 PM 30.2994 -84.2086 151° Southeast 346 398 35,000  Level Jacksonville Center
Thu 03:04:19 PM 30.2164 -84.1544 151° Southeast 352 405 35,000  Level Jacksonville Center
Thu 03:05:19 PM 30.1292 -84.0983 151° Southeast 352 405 35,000  Level Jacksonville Center
Thu 03:06:19 PM 30.0442 -84.0372 148° Southeast 352 405 35,000  Level Jacksonville Center
Thu 03:07:19 PM 29.9889 -83.9286 120° Southeast 357 411 35,000  Level Jacksonville Center
Thu 03:08:19 PM 29.9772 -83.7942 96° East 375 432 35,000  Level Jacksonville Center
Thu 03:09:19 PM 29.9447 -83.6739 107° East 382 440 35,000  Level Jacksonville Center
Thu 03:10:19 PM 29.8553 -83.6325 158° South 347 399 35,000  Level Jacksonville Center
Thu 03:11:19 PM 29.7656 -83.6175 172° South 313 360 35,000  Level Jacksonville Center
Thu 03:12:19 PM 29.6736 -83.6050 173° South 320 368 35,000  Level Jacksonville Center
Thu 03:13:19 PM 29.5861 -83.5875 170° South 326 375 35,000  Level Jacksonville Center
Thu 03:14:19 PM 29.4964 -83.5703 171° South 331 381 35,000  Level Jacksonville Center
Thu 03:15:19 PM 29.4067 -83.5553 172° South 331 381 35,000  Level Jacksonville Center
Thu 03:16:19 PM 29.3169 -83.5403 172° South 331 381 35,000  Level Jacksonville Center
Thu 03:17:19 PM 29.2294 -83.5256 172° South 331 381 35,000  Level Jacksonville Center
Thu 03:18:19 PM 29.1397 -83.5108 172° South 331 381 35,000  Level Jacksonville Center
Thu 03:19:19 PM 29.0522 -83.4958 171° South 331 381 35,000  Level Jacksonville Center
Thu 03:20:19 PM 28.9686 -83.4811 171° South 339 390 35,000 -300 Level Jacksonville Center
Thu 03:21:19 PM 28.8583 -83.4614 171° South 339 390 34,400 -500 Descending Jacksonville Center
Thu 03:22:19 PM 28.7644 -83.4492 173° South 339 390 34,000 -350 Descending Jacksonville Center
Thu 03:23:19 PM 28.6725 -83.4297 169° South 339 390 33,700 -305 Descending Jacksonville Center
Thu 03:25:36 PM 28.4561 -83.3981 173° South 342 394 33,000 -213 Descending Miami Center
Thu 03:26:36 PM 28.3608 -83.3808 171° South 347 399 33,000  Level Miami Center
Thu 03:27:36 PM 28.2678 -83.3658 172° South 347 399 33,000 -100 Level Miami Center
Thu 03:28:36 PM 28.1800 -83.3725 184° South 328 377 32,800 -700 Descending Miami Center
Thu 03:29:36 PM 28.0950 -83.4075 200° South 323 372 31,600 -1,200 Descending Miami Center
Thu 03:30:36 PM 28.0078 -83.4425 200° South 329 379 30,400 -950 Descending Miami Center
Thu 03:31:36 PM 27.9117 -83.4511 185° South 343 395 29,700 -1,000 Descending Miami Center
Thu 03:32:36 PM 27.8164 -83.4336 171° South 343 395 28,400 -1,400 Descending Miami Center
Thu 03:33:36 PM 27.7192 -83.4142 170° South 350 403 26,900 -1,450 Descending Miami Center
Thu 03:34:36 PM 27.6297 -83.3667 155° Southeast 352 405 25,500 -1,200 Descending Miami Center
Thu 03:35:36 PM 27.5478 -83.2825 138° Southeast 366 421 24,500 -950 Descending Miami Center
Thu 03:36:36 PM 27.4742 -83.2058 137° Southeast 366 421 23,600 -950 Descending Miami Center
Thu 03:37:36 PM 27.4022 -83.1342 139° Southeast 361 415 22,600 -900 Descending Miami Center
Thu 03:38:36 PM 27.3281 -83.0625 139° Southeast 356 410 21,800 -700 Descending Miami Center
Thu 03:39:36 PM 27.2581 -82.9933 139° Southeast 351 404 21,200 -900 Descending Miami Center
Thu 03:40:36 PM 27.1881 -82.9219 138° Southeast 346 398 20,000 -1,200 Descending Miami Center
Thu 03:41:36 PM 27.1178 -82.8531 139° Southeast 341 392 18,800 -1,000 Descending Miami Center
Thu 03:42:36 PM 27.0517 -82.7867 138° Southeast 334 384 18,000 -1,050 Descending Miami Center
Thu 03:43:36 PM 26.9856 -82.7228 139° Southeast 323 372 16,700 -1,400 Descending Miami Center
Thu 03:44:36 PM 26.9233 -82.6592 138° Southeast 318 366 15,200 -1,400 Descending Miami Center
Thu 03:45:36 PM 26.8589 -82.5978 140° Southeast 313 360 13,900 -1,350 Descending Miami Center
Thu 03:46:36 PM 26.8047 -82.5414 137° Southeast 302 348 12,500 -1,450 Descending Miami Center
Thu 03:47:36 PM 26.7425 -82.4803 139° Southeast 302 348 11,000 -1,100 Descending Miami Center
Thu 03:48:36 PM 26.6783 -82.4169 139° Southeast 302 348 10,300 -500 Descending Miami Center
Thu 03:49:36 PM 26.6136 -82.3606 142° Southeast 302 348 10,000 -850 Descending Miami Center
Thu 03:50:36 PM 26.5425 -82.3083 147° Southeast 288 331 8,600 -1,300 Descending Miami Center
Thu 03:51:36 PM 26.4794 -82.2614 146° Southeast 278 320 7,400 -800 Descending Miami Center
Thu 03:52:36 PM 26.4164 -82.2167 148° Southeast 273 314 7,000 -200 Descending Miami Center
Thu 03:53:36 PM 26.3556 -82.1722 147° Southeast 273 314 7,000  Level Miami Center
Thu 03:55:00 PM 26.2595 -82.0957 152° Southeast  Level FlightAware Approximate
Thu 04:02:00 PM 26.1524 -81.7756 66° East  Level Estimated
Thu 04:03:00 PM 26.1524 -81.7756 66° East  Level Estimated
Thu 04:04:00 PM 26.1524 -81.7756 66° East  Level Estimated
Thu 04:05:00 PM 26.1524 -81.7756 66° East  Level Estimated
Thu 04:06:00 PM 26.1524 -81.7756 66° East  Level Estimated
Thu 04:07:00 PM 26.1524 -81.7756 66° East  Level Estimated
Thu 04:08:00 PM 26.1524 -81.7756 66° East  Level Estimated
Thu 04:09:00 PM 26.1524 -81.7756 66° East  Level Estimated
Thu 04:10:00 PM 26.1524 -81.7756 66° East  Level Estimated
Thu 04:11:00 PM 26.1524 -81.7756 66° East  Level Estimated
Thu 04:12:00 PM 26.1524 -81.7756 66° East  Level Estimated

Login

Don't have an account? Register now (free) for customized features, flight alerts, and more!